createdAt,value
2023-09-01T00:00:47.212Z,2.80
2023-09-01T00:03:36.792Z,2.70
2023-09-01T00:06:12.403Z,2.90
2023-09-01T00:08:41.173Z,2.40
2023-09-01T00:11:09.281Z,2.40
2023-09-01T00:13:37.344Z,2.40
2023-09-01T00:16:05.958Z,2.40
2023-09-01T00:18:34.488Z,3.30
2023-09-01T00:21:04.958Z,2.90
2023-09-01T00:23:33.757Z,2.70
2023-09-01T00:26:02.871Z,2.90
2023-09-01T00:28:30.903Z,2.50
2023-09-01T00:31:01.399Z,2.80
2023-09-01T00:33:31.772Z,2.30
2023-09-01T00:36:01.441Z,2.10
2023-09-01T00:38:33.645Z,2.00
2023-09-01T00:41:01.850Z,2.10
2023-09-01T00:43:30.220Z,2.00
2023-09-01T00:45:59.507Z,2.10
2023-09-01T00:48:28.457Z,2.10
2023-09-01T00:50:56.771Z,2.10
2023-09-01T00:53:24.837Z,2.00
2023-09-01T00:55:54.262Z,2.00
2023-09-01T00:58:22.327Z,2.00
2023-09-01T01:00:50.367Z,2.20
2023-09-01T01:03:18.777Z,1.90
2023-09-01T01:06:26.044Z,2.10
2023-09-01T01:09:35.178Z,2.00
2023-09-01T01:12:34.443Z,1.90
2023-09-01T01:15:10.403Z,2.00
2023-09-01T01:17:45.048Z,3.00
2023-09-01T01:20:32.948Z,3.90
2023-09-01T01:23:18.147Z,2.60
2023-09-01T01:25:55.407Z,2.60
2023-09-01T01:28:26.368Z,2.80
2023-09-01T01:30:54.398Z,2.70
2023-09-01T01:33:31.210Z,2.80
2023-09-01T01:36:14.748Z,2.20
2023-09-01T01:38:46.557Z,2.50
2023-09-01T01:41:41.880Z,2.20
2023-09-01T01:44:12.082Z,2.70
2023-09-01T01:46:41.426Z,2.10
2023-09-01T01:49:10.998Z,2.40
2023-09-01T01:51:39.087Z,2.10
2023-09-01T01:54:07.167Z,2.00
2023-09-01T01:56:35.394Z,2.20
2023-09-01T01:59:06.127Z,2.20
2023-09-01T02:01:34.534Z,2.20
2023-09-01T02:04:02.809Z,2.00
2023-09-01T02:09:23.167Z,1.90
2023-09-01T02:11:51.380Z,2.00
2023-09-01T02:14:20.180Z,2.30
2023-09-01T02:16:48.155Z,2.40
2023-09-01T02:19:16.278Z,2.20
2023-09-01T02:21:46.265Z,2.20
2023-09-01T02:24:14.294Z,2.10
2023-09-01T02:26:42.479Z,2.00
2023-09-01T02:29:10.462Z,2.50
2023-09-01T02:31:39.229Z,2.20
2023-09-01T02:34:07.293Z,2.10
2023-09-01T02:36:36.811Z,2.20
2023-09-01T02:39:08.328Z,2.20
2023-09-01T02:41:36.751Z,2.40
2023-09-01T02:44:05.369Z,2.40
2023-09-01T02:46:33.500Z,2.40
2023-09-01T02:49:01.794Z,2.40
2023-09-01T02:51:30.171Z,2.70
2023-09-01T02:53:58.280Z,2.20
2023-09-01T02:56:26.379Z,2.40
2023-09-01T02:58:54.792Z,2.40
2023-09-01T03:01:22.798Z,2.40
2023-09-01T03:03:50.899Z,2.30
2023-09-01T03:06:19.043Z,2.60
2023-09-01T03:08:47.172Z,2.40
2023-09-01T03:11:15.186Z,2.70
2023-09-01T03:13:43.292Z,2.40
2023-09-01T03:16:11.530Z,2.30
2023-09-01T03:18:40.296Z,2.40
2023-09-01T03:21:11.748Z,2.60
2023-09-01T03:23:40.290Z,2.50
2023-09-01T03:26:08.394Z,2.30
2023-09-01T03:28:36.405Z,2.80
2023-09-01T03:31:10.917Z,2.40
2023-09-01T03:33:40.995Z,2.50
2023-09-01T03:36:09.460Z,2.90
2023-09-01T03:38:38.084Z,2.60
2023-09-01T03:41:07.507Z,3.00
2023-09-01T03:43:36.555Z,2.50
2023-09-01T03:46:04.741Z,2.70
2023-09-01T03:48:33.467Z,3.80
2023-09-01T03:51:09.902Z,2.80
2023-09-01T03:53:39.725Z,2.80
2023-09-01T03:56:12.852Z,2.60
2023-09-01T03:58:43.176Z,2.60
2023-09-01T04:01:14.075Z,2.90
2023-09-01T04:03:44.630Z,2.70
2023-09-01T04:06:13.937Z,2.50
2023-09-01T04:08:42.499Z,2.60
2023-09-01T04:11:11.152Z,2.60
2023-09-01T04:13:39.236Z,3.10
2023-09-01T04:16:07.393Z,3.10
2023-09-01T04:18:36.065Z,3.20
2023-09-01T04:21:04.290Z,3.90
2023-09-01T04:23:33.422Z,3.40
2023-09-01T04:26:03.589Z,3.00
2023-09-01T04:28:32.824Z,3.70
2023-09-01T04:31:03.091Z,3.20
2023-09-01T04:33:32.840Z,2.90
2023-09-01T04:36:02.528Z,2.80
2023-09-01T04:38:30.863Z,3.20
2023-09-01T04:41:00.936Z,3.10
2023-09-01T04:43:30.943Z,2.60
2023-09-01T04:45:59.835Z,2.70
2023-09-01T04:48:31.579Z,2.80
2023-09-01T04:51:03.916Z,3.00
2023-09-01T04:53:33.256Z,3.40
2023-09-01T04:56:01.974Z,3.80
2023-09-01T04:58:30.068Z,4.00
2023-09-01T05:00:58.241Z,3.30
2023-09-01T05:03:27.461Z,2.60
2023-09-01T05:05:58.294Z,4.00
2023-09-01T05:08:26.474Z,3.70
2023-09-01T05:10:54.510Z,3.30
2023-09-01T05:13:22.492Z,2.50
2023-09-01T05:15:50.547Z,2.90
2023-09-01T05:18:18.661Z,3.20
2023-09-01T05:20:49.525Z,3.10
2023-09-01T05:23:17.728Z,3.10
2023-09-01T05:25:52.050Z,2.70
2023-09-01T05:28:20.126Z,2.80
2023-09-01T05:30:48.668Z,3.00
2023-09-01T05:33:17.069Z,3.60
2023-09-01T05:35:45.146Z,3.00
2023-09-01T05:38:13.643Z,2.80
2023-09-01T05:40:42.009Z,2.70
2023-09-01T05:43:10.212Z,3.10
2023-09-01T05:45:38.816Z,3.40
2023-09-01T05:48:07.230Z,2.70
2023-09-01T05:50:35.520Z,2.80
2023-09-01T05:53:05.515Z,2.70
2023-09-01T05:55:33.628Z,2.50
2023-09-01T05:58:01.640Z,2.20
2023-09-01T06:00:33.084Z,2.80
2023-09-01T06:03:01.169Z,2.90
2023-09-01T06:05:29.945Z,2.80
2023-09-01T06:07:57.941Z,3.70
2023-09-01T06:10:25.947Z,3.00
2023-09-01T06:12:54.924Z,2.80
2023-09-01T06:15:23.117Z,2.80
2023-09-01T06:17:51.186Z,2.70
2023-09-01T06:20:20.686Z,2.40
2023-09-01T06:22:49.307Z,2.20
2023-09-01T06:25:17.443Z,2.40
2023-09-01T06:27:45.511Z,2.50
2023-09-01T06:30:14.300Z,2.20
2023-09-01T06:32:42.388Z,2.40
2023-09-01T06:35:10.413Z,2.50
2023-09-01T06:37:38.518Z,2.00
2023-09-01T06:40:07.026Z,2.50
2023-09-01T06:42:35.157Z,2.20
2023-09-01T06:45:04.748Z,2.20
2023-09-01T06:47:32.820Z,2.30
2023-09-01T06:50:00.846Z,2.20
2023-09-01T06:52:28.892Z,2.50
2023-09-01T06:54:56.954Z,2.80
2023-09-01T06:57:24.916Z,2.60
2023-09-01T06:59:52.924Z,2.50
2023-09-01T07:02:20.871Z,2.30
2023-09-01T07:04:50.393Z,2.20
2023-09-01T07:07:18.448Z,2.40
2023-09-01T07:09:46.527Z,2.00
2023-09-01T07:12:14.578Z,2.00
2023-09-01T07:14:42.590Z,2.00
2023-09-01T07:17:13.965Z,2.20
2023-09-01T07:19:42.875Z,2.30
2023-09-01T07:22:10.890Z,2.00
2023-09-01T07:24:39.011Z,2.50
2023-09-01T07:27:07.758Z,2.60
2023-09-01T07:29:35.758Z,2.00
2023-09-01T07:32:06.860Z,2.00
2023-09-01T07:34:35.439Z,2.40
2023-09-01T07:37:03.568Z,1.90
2023-09-01T07:39:31.557Z,2.40
2023-09-01T07:41:59.588Z,2.10
2023-09-01T07:44:27.570Z,2.10
2023-09-01T07:46:55.512Z,1.80
2023-09-01T07:49:23.465Z,2.20
2023-09-01T07:51:51.603Z,2.20
2023-09-01T07:54:19.628Z,1.90
2023-09-01T07:56:47.589Z,2.70
2023-09-01T07:59:15.614Z,2.10
2023-09-01T08:01:45.368Z,2.20
2023-09-01T08:04:13.351Z,1.90
2023-09-01T08:06:41.368Z,2.20
2023-09-01T08:09:09.384Z,2.20
2023-09-01T08:11:37.381Z,1.90
2023-09-01T08:14:05.381Z,2.10
2023-09-01T08:16:33.390Z,2.10
2023-09-01T08:19:03.560Z,2.20
2023-09-01T08:21:31.990Z,2.40
2023-09-01T08:23:59.959Z,2.50
2023-09-01T08:26:28.104Z,1.90
2023-09-01T08:28:57.237Z,1.90
2023-09-01T08:31:25.836Z,2.20
2023-09-01T08:33:55.408Z,1.80
2023-09-01T08:36:23.505Z,2.00
2023-09-01T08:38:51.567Z,2.00
2023-09-01T08:41:20.649Z,2.50
2023-09-01T08:43:51.969Z,1.90
2023-09-01T08:46:23.009Z,2.20
2023-09-01T08:48:51.293Z,2.30
2023-09-01T08:51:21.552Z,1.70
2023-09-01T08:53:51.297Z,2.30
2023-09-01T08:56:19.296Z,2.50
2023-09-01T08:58:47.566Z,2.50
2023-09-01T09:01:17.296Z,2.40
2023-09-01T09:03:45.498Z,2.00
2023-09-01T09:06:14.805Z,2.10
2023-09-01T09:08:43.276Z,2.60
2023-09-01T09:11:16.912Z,2.30
2023-09-01T09:13:51.232Z,2.40
2023-09-01T09:16:25.240Z,1.90
2023-09-01T09:18:53.399Z,2.20
2023-09-01T09:21:30.496Z,2.30
2023-09-01T09:26:32.773Z,1.70
2023-09-01T09:29:10.005Z,2.10
2023-09-01T09:31:41.087Z,1.60
2023-09-01T09:34:19.573Z,2.30
2023-09-01T09:36:48.983Z,2.40
2023-09-01T09:39:28.512Z,1.80
2023-09-01T09:41:58.278Z,2.00
2023-09-01T09:44:30.954Z,1.90
2023-09-01T09:46:59.268Z,2.20
2023-09-01T09:49:32.246Z,2.30
2023-09-01T09:52:01.915Z,1.70
2023-09-01T09:54:30.916Z,2.20
2023-09-01T09:57:01.304Z,2.10
2023-09-01T09:59:41.434Z,2.20
2023-09-01T10:02:25.147Z,1.80
2023-09-01T10:04:54.654Z,1.90
2023-09-01T10:07:24.169Z,2.50
2023-09-01T10:09:53.829Z,2.00
2023-09-01T10:12:22.495Z,2.20
2023-09-01T10:14:52.426Z,2.20
2023-09-01T10:17:22.906Z,2.30
2023-09-01T10:19:51.021Z,2.30
2023-09-01T10:22:19.635Z,2.00
2023-09-01T10:25:27.389Z,2.10
2023-09-01T10:28:15.339Z,2.00
2023-09-01T10:30:45.708Z,2.30
2023-09-01T10:33:26.206Z,1.80
2023-09-01T10:35:58.669Z,1.70
2023-09-01T10:38:35.707Z,1.90
2023-09-01T10:41:04.564Z,2.40
2023-09-01T10:43:32.572Z,1.80
2023-09-01T10:46:29.826Z,1.90
2023-09-01T10:49:01.903Z,2.10
2023-09-01T10:51:35.478Z,2.00
2023-09-01T10:54:23.684Z,1.70
2023-09-01T10:57:00.413Z,2.00
2023-09-01T10:59:37.097Z,2.00
2023-09-01T11:02:18.737Z,2.40
2023-09-01T11:04:47.903Z,1.70
2023-09-01T11:07:16.016Z,1.70
2023-09-01T11:09:43.941Z,2.20
2023-09-01T11:12:13.425Z,1.70
2023-09-01T11:15:00.782Z,1.80
2023-09-01T11:17:45.013Z,2.10
2023-09-01T11:20:17.745Z,2.00
2023-09-01T11:22:46.648Z,2.10
2023-09-01T11:25:16.696Z,1.60
2023-09-01T11:27:50.900Z,2.00
2023-09-01T11:30:20.818Z,2.00
2023-09-01T11:32:50.253Z,1.70
2023-09-01T11:35:30.014Z,2.40
2023-09-01T11:37:59.143Z,1.90
2023-09-01T11:40:29.317Z,1.80
2023-09-01T11:42:57.786Z,2.00
2023-09-01T11:45:25.790Z,2.10
2023-09-01T11:47:55.128Z,2.00
2023-09-01T11:50:23.631Z,1.90
2023-09-01T11:52:53.205Z,1.90
2023-09-01T11:55:35.981Z,1.70
2023-09-01T11:58:04.801Z,1.60
2023-09-01T12:00:40.116Z,1.80
2023-09-01T12:03:09.545Z,1.60
2023-09-01T12:05:40.768Z,1.50
2023-09-01T12:08:11.168Z,2.00
2023-09-01T12:10:39.363Z,1.80
2023-09-01T12:13:12.809Z,1.70
2023-09-01T12:16:01.056Z,1.40
2023-09-01T12:18:37.563Z,1.60
2023-09-01T12:21:08.744Z,1.70
2023-09-01T12:23:49.095Z,1.70
2023-09-01T12:26:17.517Z,1.70
2023-09-01T12:28:45.608Z,1.80
2023-09-01T12:31:15.725Z,1.90
2023-09-01T12:33:43.989Z,2.00
2023-09-01T12:36:14.099Z,1.80
2023-09-01T12:38:45.201Z,1.60
2023-09-01T12:41:13.436Z,1.70
2023-09-01T12:43:43.641Z,1.70
2023-09-01T12:46:11.647Z,1.90
2023-09-01T12:48:39.730Z,1.50
2023-09-01T12:51:07.880Z,2.00
2023-09-01T12:53:35.969Z,1.50
2023-09-01T12:56:04.141Z,2.50
2023-09-01T12:58:32.796Z,2.10
2023-09-01T13:01:07.269Z,1.70
2023-09-01T13:03:35.534Z,1.80
2023-09-01T13:06:11.554Z,1.50
2023-09-01T13:08:39.684Z,1.20
2023-09-01T13:11:11.585Z,1.80
2023-09-01T13:13:40.586Z,1.40
2023-09-01T13:16:13.121Z,1.30
2023-09-01T13:18:41.325Z,1.50
2023-09-01T13:21:10.393Z,1.50
2023-09-01T13:23:38.448Z,1.50
2023-09-01T13:26:11.478Z,1.40
2023-09-01T13:28:39.474Z,1.50
2023-09-01T13:31:07.456Z,1.30
2023-09-01T13:33:40.617Z,1.50
2023-09-01T13:38:39.944Z,1.40
2023-09-01T13:41:08.735Z,1.50
2023-09-01T13:43:36.977Z,1.30
2023-09-01T13:46:24.159Z,1.20
2023-09-01T13:48:57.253Z,1.00
2023-09-01T13:51:29.852Z,1.10
2023-09-01T13:53:58.140Z,1.20
2023-09-01T13:56:26.344Z,1.20
2023-09-01T13:58:54.387Z,1.00
2023-09-01T14:01:22.421Z,1.10
2023-09-01T14:03:50.499Z,1.20
2023-09-01T14:06:18.537Z,1.10
2023-09-01T14:08:46.578Z,1.10
2023-09-01T14:11:14.947Z,1.20
2023-09-01T14:13:42.961Z,1.20
2023-09-01T14:16:12.490Z,1.20
2023-09-01T14:18:43.150Z,1.00
2023-09-01T14:21:11.363Z,1.40
2023-09-01T14:23:39.510Z,1.60
2023-09-01T14:26:07.686Z,1.20
2023-09-01T14:28:35.826Z,1.20
2023-09-01T14:31:04.414Z,1.20
2023-09-01T14:33:41.846Z,1.10
2023-09-01T14:38:44.137Z,1.20
2023-09-01T14:41:19.391Z,1.30
2023-09-01T14:43:48.317Z,1.40
2023-09-01T14:46:19.020Z,1.40
2023-09-01T14:48:47.826Z,1.80
2023-09-01T14:51:16.642Z,1.40
2023-09-01T14:53:47.454Z,1.30
2023-09-01T14:56:17.849Z,2.20
2023-09-01T14:58:46.125Z,1.60
2023-09-01T15:01:14.143Z,1.60
2023-09-01T15:03:42.257Z,1.70
2023-09-01T15:06:10.516Z,1.60
2023-09-01T15:08:38.542Z,2.20
2023-09-01T15:11:06.711Z,2.20
2023-09-01T15:13:34.788Z,1.70
2023-09-01T15:16:02.853Z,1.30
2023-09-01T15:18:30.930Z,1.30
2023-09-01T15:21:06.693Z,1.50
2023-09-01T15:23:35.879Z,1.50
2023-09-01T15:26:04.142Z,1.50
2023-09-01T15:28:32.285Z,1.60
2023-09-01T15:31:00.339Z,1.40
2023-09-01T15:33:29.124Z,2.40
2023-09-01T15:36:00.477Z,2.30
2023-09-01T15:38:30.125Z,2.00
2023-09-01T15:41:02.184Z,2.10
2023-09-01T15:43:30.597Z,1.90
2023-09-01T15:45:59.392Z,1.70
2023-09-01T15:48:28.545Z,1.70
2023-09-01T15:50:58.545Z,2.00
2023-09-01T15:53:28.680Z,2.00
2023-09-01T15:55:58.697Z,2.00
2023-09-01T15:58:26.813Z,2.40
2023-09-01T16:01:03.609Z,1.80
2023-09-01T16:03:46.522Z,2.80
2023-09-01T16:06:21.684Z,1.60
2023-09-01T16:08:49.835Z,2.30
2023-09-01T16:11:17.830Z,2.10
2023-09-01T16:13:47.925Z,1.90
2023-09-01T16:16:15.958Z,1.80
2023-09-01T16:18:44.081Z,2.10
2023-09-01T16:21:12.093Z,1.80
2023-09-01T16:23:40.080Z,2.00
2023-09-01T16:26:08.088Z,3.50
2023-09-01T16:28:36.167Z,3.10
2023-09-01T16:31:04.459Z,2.60
2023-09-01T16:33:32.500Z,2.40
2023-09-01T16:36:02.007Z,2.20
2023-09-01T16:38:30.726Z,2.30
2023-09-01T16:41:00.132Z,3.40
2023-09-01T16:43:28.318Z,2.50
2023-09-01T16:45:56.549Z,2.10
2023-09-01T16:48:25.202Z,1.90
2023-09-01T16:50:53.218Z,2.30
2023-09-01T16:53:21.298Z,2.70
2023-09-01T16:55:49.795Z,2.10
2023-09-01T16:58:17.856Z,2.30
2023-09-01T17:00:47.083Z,2.40
2023-09-01T17:03:15.357Z,2.30
2023-09-01T17:05:46.523Z,2.00
2023-09-01T17:08:14.736Z,2.20
2023-09-01T17:10:42.837Z,2.80
2023-09-01T17:13:10.818Z,2.50
2023-09-01T17:15:40.440Z,3.00
2023-09-01T17:18:09.051Z,2.50
2023-09-01T17:20:52.604Z,2.60
2023-09-01T17:23:20.615Z,2.30
2023-09-01T17:25:48.572Z,2.70
2023-09-01T17:28:16.573Z,2.60
2023-09-01T17:30:44.722Z,2.70
2023-09-01T17:33:12.835Z,2.50
2023-09-01T17:35:40.825Z,2.80
2023-09-01T17:38:08.809Z,3.10
2023-09-01T17:40:37.726Z,2.60
2023-09-01T17:43:05.737Z,2.50
2023-09-01T17:45:33.742Z,3.00
2023-09-01T17:48:01.866Z,2.90
2023-09-01T17:50:29.962Z,3.30
2023-09-01T17:52:58.013Z,3.00
2023-09-01T17:55:29.234Z,2.90
2023-09-01T17:57:57.277Z,3.40
2023-09-01T18:00:25.287Z,3.20
2023-09-01T18:02:56.708Z,3.20
2023-09-01T18:05:25.081Z,3.10
2023-09-01T18:07:53.834Z,3.20
2023-09-01T18:10:21.863Z,3.40
2023-09-01T18:12:49.922Z,6.30
2023-09-01T18:15:19.032Z,4.20
2023-09-01T18:17:47.195Z,3.70
2023-09-01T18:20:19.832Z,3.80
2023-09-01T18:22:50.672Z,3.60
2023-09-01T18:25:19.141Z,4.80
2023-09-01T18:27:48.711Z,4.40
2023-09-01T18:30:17.913Z,3.50
2023-09-01T18:32:48.836Z,4.10
2023-09-01T18:35:20.172Z,4.00
2023-09-01T18:37:48.252Z,3.90
2023-09-01T18:40:23.938Z,3.40
2023-09-01T18:42:53.127Z,3.70
2023-09-01T18:45:27.326Z,3.30
2023-09-01T18:47:55.980Z,3.10
2023-09-01T18:50:24.173Z,3.50
2023-09-01T18:52:57.480Z,2.90
2023-09-01T18:55:25.661Z,3.30
2023-09-01T18:57:53.727Z,3.20
2023-09-01T19:00:25.028Z,3.00
2023-09-01T19:02:53.805Z,4.70
2023-09-01T19:05:33.189Z,3.70
2023-09-01T19:08:13.192Z,4.20
2023-09-01T19:10:42.141Z,3.60
2023-09-01T19:13:11.594Z,3.80
2023-09-01T19:15:40.616Z,4.00
2023-09-01T19:18:11.361Z,3.40
2023-09-01T19:20:42.603Z,4.00
2023-09-01T19:23:23.707Z,3.30
2023-09-01T19:25:51.808Z,3.30
2023-09-01T19:28:35.326Z,4.50
2023-09-01T19:31:06.286Z,5.00
2023-09-01T19:33:36.733Z,3.40
2023-09-01T19:36:05.263Z,4.00
2023-09-01T19:38:33.423Z,4.10
2023-09-01T19:41:01.922Z,4.00
2023-09-01T19:43:30.756Z,3.70
2023-09-01T19:46:00.640Z,3.40
2023-09-01T19:48:32.858Z,4.20
2023-09-01T19:51:02.166Z,3.80
2023-09-01T19:53:31.706Z,3.90
2023-09-01T19:56:23.218Z,4.60
2023-09-01T19:58:57.059Z,3.60
2023-09-01T20:01:28.524Z,3.70
2023-09-01T20:03:57.298Z,3.00
2023-09-01T20:06:27.393Z,3.40
2023-09-01T20:09:08.947Z,3.10
2023-09-01T20:11:37.031Z,3.60
2023-09-01T20:14:08.537Z,3.80
2023-09-01T20:16:41.720Z,3.90
2023-09-01T20:19:15.022Z,3.40
2023-09-01T20:24:11.187Z,3.50
2023-09-01T20:26:39.219Z,4.30
2023-09-01T20:29:07.258Z,3.80
2023-09-01T20:31:37.508Z,4.00
2023-09-01T20:34:09.383Z,3.40
2023-09-01T20:36:37.675Z,3.30
2023-09-01T20:39:07.285Z,3.50
2023-09-01T20:41:35.455Z,4.10
2023-09-01T20:44:04.021Z,3.80
2023-09-01T20:46:32.121Z,3.80
2023-09-01T20:49:00.551Z,4.00
2023-09-01T20:51:28.592Z,4.00
2023-09-01T20:53:56.618Z,4.50
2023-09-01T20:56:24.631Z,4.80
2023-09-01T20:58:52.609Z,4.40
2023-09-01T21:01:20.731Z,5.10
2023-09-01T21:03:48.878Z,4.80
2023-09-01T21:06:16.930Z,4.60
2023-09-01T21:08:44.927Z,11.70
2023-09-01T21:11:14.396Z,7.00
2023-09-01T21:13:42.803Z,4.50
2023-09-01T21:16:10.900Z,4.50
2023-09-01T21:18:39.038Z,4.40
2023-09-01T21:21:07.091Z,4.80
2023-09-01T21:23:35.147Z,4.60
2023-09-01T21:26:03.438Z,4.30
2023-09-01T21:28:33.072Z,5.20
2023-09-01T21:31:01.428Z,5.60
2023-09-01T21:33:29.461Z,4.90
2023-09-01T21:35:57.589Z,7.30
2023-09-01T21:38:25.741Z,8.10
2023-09-01T21:40:53.802Z,6.00
2023-09-01T21:43:22.124Z,5.20
2023-09-01T21:45:50.232Z,5.40
2023-09-01T21:48:18.249Z,5.60
2023-09-01T21:50:46.215Z,5.20
2023-09-01T21:53:14.310Z,6.20
2023-09-01T21:55:42.663Z,6.20
2023-09-01T21:58:10.864Z,6.50
2023-09-01T22:00:38.916Z,5.80
2023-09-01T22:03:06.987Z,6.70
2023-09-01T22:05:35.113Z,6.00
2023-09-01T22:08:04.439Z,6.90
2023-09-01T22:10:32.539Z,5.90
2023-09-01T22:13:00.667Z,6.30
2023-09-01T22:15:28.726Z,5.90
2023-09-01T22:17:57.998Z,6.30
2023-09-01T22:20:26.572Z,6.70
2023-09-01T22:22:54.536Z,6.20
2023-09-01T22:25:22.551Z,6.60
2023-09-01T22:27:50.682Z,6.40
2023-09-01T22:30:19.239Z,6.70
2023-09-01T22:32:47.385Z,6.40
2023-09-01T22:35:15.481Z,6.60
2023-09-01T22:37:43.665Z,6.30
2023-09-01T22:40:12.057Z,7.30
2023-09-01T22:42:42.010Z,6.20
2023-09-01T22:45:11.858Z,6.90
2023-09-01T22:47:39.860Z,7.20
2023-09-01T22:50:08.315Z,6.50
2023-09-01T22:52:36.279Z,6.70
2023-09-01T22:55:04.930Z,6.40
2023-09-01T22:57:32.898Z,6.50
2023-09-01T23:00:00.898Z,6.40
2023-09-01T23:02:28.956Z,6.30
2023-09-01T23:04:56.968Z,6.90
2023-09-01T23:07:24.941Z,7.00
2023-09-01T23:09:53.030Z,7.10
2023-09-01T23:12:21.084Z,6.60
2023-09-01T23:14:49.141Z,6.50
2023-09-01T23:17:17.153Z,6.20
2023-09-01T23:19:45.157Z,6.70
2023-09-01T23:22:13.128Z,7.10
2023-09-01T23:24:41.074Z,6.80
2023-09-01T23:27:09.025Z,6.80
2023-09-01T23:29:36.990Z,7.20
2023-09-01T23:32:08.953Z,6.60
2023-09-01T23:34:37.158Z,6.40
2023-09-01T23:37:05.413Z,7.10
2023-09-01T23:39:34.695Z,6.90
2023-09-01T23:42:03.706Z,7.70
2023-09-01T23:44:31.754Z,7.30
2023-09-01T23:46:59.802Z,7.60
2023-09-01T23:49:27.847Z,8.90
2023-09-01T23:51:55.862Z,9.40
2023-09-01T23:54:23.849Z,9.70
2023-09-01T23:56:51.831Z,8.70
2023-09-01T23:59:20.438Z,7.80
